Time;durP1;ratioP1;P1;durP2;ratioP2;P2;SDS_P1;SDS_P2;PMS_P1;PMS_P2;Temp;Humidity;BMP_temperature;BMP_pressure;BME280_temperature;BME280_humidity;BME280_pressure;Samples;Min_cycle;Max_cycle;Signal;HPM_P1;HPM_P2
2022/05/31 00:01:21;;;;;;;15.35;4.78;;;;;;;16.94;86.03;98981.27;1727378;83;21534;-80
2022/05/31 00:03:47;;;;;;;9.98;4.75;;;;;;;16.94;84.17;98981.27;1724815;83;21071;-80
2022/05/31 00:06:14;;;;;;;12.73;4.67;;;;;;;16.90;85.02;98989.30;1720060;83;21042;-80
2022/05/31 00:08:41;;;;;;;11.15;5.28;;;;;;;16.87;84.82;98993.41;1723009;83;21006;-79
2022/05/31 00:11:08;;;;;;;10.63;4.53;;;;;;;16.88;85.39;98992.94;1727639;83;20976;-80
2022/05/31 00:13:35;;;;;;;9.75;5.12;;;;;;;16.87;87.01;98986.85;1722702;83;21502;-80
2022/05/31 00:16:02;;;;;;;9.80;4.75;;;;;;;16.90;85.99;98995.02;1726007;83;20983;-79
2022/05/31 00:18:28;;;;;;;15.75;5.30;;;;;;;16.93;84.66;98995.31;1722382;83;21526;-79
2022/05/31 00:20:55;;;;;;;10.45;4.55;;;;;;;16.89;86.53;98996.80;1726612;83;20968;-79
2022/05/31 00:23:23;;;;;;;12.80;5.00;;;;;;;16.92;84.93;98998.88;1726857;83;21025;-79
2022/05/31 00:25:50;;;;;;;11.93;4.87;;;;;;;16.91;85.53;98992.80;1727657;83;20972;-79
2022/05/31 00:28:17;;;;;;;15.93;4.95;;;;;;;16.92;85.48;98989.22;1721220;83;21090;-79
2022/05/31 00:30:43;;;;;;;12.45;4.17;;;;;;;16.94;85.29;98989.15;1724194;83;21003;-78
2022/05/31 00:33:10;;;;;;;8.00;4.60;;;;;;;16.97;85.75;98988.53;1722473;83;21035;-79
2022/05/31 00:35:41;;;;;;;13.00;4.90;;;;;;;17.00;86.05;98994.08;1725824;83;21079;-79
2022/05/31 00:38:09;;;;;;;15.28;5.33;;;;;;;17.01;86.21;98995.75;1722043;83;21494;-79
2022/05/31 00:40:37;;;;;;;10.45;4.20;;;;;;;17.02;85.63;98993.05;1723265;81;21153;-83
2022/05/31 00:43:11;;;;;;;9.88;4.20;;;;;;;17.04;85.30;98998.23;1715207;83;21035;-80
2022/05/31 00:45:52;;;;;;;11.90;4.65;;;;;;;17.05;86.30;98997.28;1705321;83;21011;-82
2022/05/31 00:48:30;;;;;;;11.70;4.83;;;;;;;17.05;85.31;98997.28;1697302;83;21063;-79
2022/05/31 00:51:01;;;;;;;9.58;5.12;;;;;;;17.05;84.79;99002.53;1707891;83;21094;-80
2022/05/31 00:53:33;;;;;;;12.25;4.87;;;;;;;17.04;85.70;99000.86;1710563;83;21072;-79
2022/05/31 00:56:05;;;;;;;8.78;4.22;;;;;;;17.05;85.88;98999.47;1708946;83;21043;-79
2022/05/31 00:58:41;;;;;;;12.37;4.60;;;;;;;17.05;86.21;99002.09;1701286;83;21024;-81
2022/05/31 01:01:12;;;;;;;9.78;4.70;;;;;;;17.03;85.93;98996.52;1707835;83;21031;-80
2022/05/31 01:03:41;;;;;;;16.25;4.90;;;;;;;17.01;85.07;99000.56;1704830;83;21551;-80
2022/05/31 01:06:11;;;;;;;16.05;4.65;;;;;;;16.97;85.62;99013.91;1709850;83;21070;-80
2022/05/31 01:08:44;;;;;;;11.70;4.58;;;;;;;16.93;86.00;99011.06;1714347;83;21067;-81
2022/05/31 01:11:32;;;;;;;12.90;4.78;;;;;;;16.87;85.79;99011.80;1706185;83;21083;-80
2022/05/31 01:14:03;;;;;;;13.70;4.58;;;;;;;16.86;86.61;99010.55;1704224;83;21031;-83
2022/05/31 01:17:02;;;;;;;13.78;5.12;;;;;;;16.86;85.28;99011.39;1706638;83;21079;-81
2022/05/31 01:19:59;;;;;;;10.78;4.70;;;;;;;16.82;86.74;99010.33;1697744;83;21060;-78
2022/05/31 01:22:42;;;;;;;14.03;5.37;;;;;;;16.81;86.83;99015.15;1705638;83;21083;-78
2022/05/31 01:25:44;;;;;;;10.28;4.92;;;;;;;16.79;86.25;99019.19;1702393;83;20999;-79
2022/05/31 01:28:31;;;;;;;13.35;4.70;;;;;;;16.78;85.88;99026.66;1710957;83;21506;-79
2022/05/31 01:31:20;;;;;;;16.07;5.30;;;;;;;16.78;85.54;99023.20;1711863;83;20999;-79
2022/05/31 01:34:04;;;;;;;13.30;5.05;;;;;;;16.75;86.04;99020.72;1703682;83;21091;-78
2022/05/31 01:36:42;;;;;;;12.20;5.10;;;;;;;16.75;86.06;99025.53;1710291;83;21003;-79
2022/05/31 01:39:23;;;;;;;19.40;5.70;;;;;;;16.74;86.40;99013.31;1706625;82;21079;-80
2022/05/31 01:41:55;;;;;;;13.93;5.50;;;;;;;16.74;86.87;99018.56;1708189;83;22167;-78
2022/05/31 01:44:25;;;;;;;10.85;5.40;;;;;;;16.72;87.24;99024.36;1708769;83;21035;-79
2022/05/31 01:46:55;;;;;;;11.85;5.70;;;;;;;16.68;87.23;99018.88;1710975;83;21282;-81
2022/05/31 01:49:23;;;;;;;9.98;4.50;;;;;;;16.61;86.35;99019.67;1711478;83;21030;-80
2022/05/31 01:51:51;;;;;;;9.13;5.05;;;;;;;16.57;84.44;99025.13;1716424;83;21012;-80
2022/05/31 01:54:19;;;;;;;12.13;4.65;;;;;;;16.49;86.39;99024.20;1714645;83;21641;-80
2022/05/31 01:56:50;;;;;;;8.38;4.85;;;;;;;16.40;86.77;99021.59;1715245;83;21057;-84
2022/05/31 01:59:18;;;;;;;19.35;5.60;;;;;;;16.35;86.66;99020.96;1716182;83;21054;-80
2022/05/31 02:01:46;;;;;;;10.20;4.87;;;;;;;16.30;86.82;99017.73;1714140;83;21122;-80
2022/05/31 02:04:16;;;;;;;14.10;4.90;;;;;;;16.27;87.00;99020.50;1718541;83;21027;-80
2022/05/31 02:06:44;;;;;;;10.38;5.30;;;;;;;16.21;87.67;99015.56;1721351;83;21083;-78
2022/05/31 02:09:14;;;;;;;11.75;5.10;;;;;;;16.20;86.87;99017.81;1716003;83;21011;-79
2022/05/31 02:11:43;;;;;;;9.93;5.15;;;;;;;16.17;86.40;99015.33;1704267;84;21046;-80
2022/05/31 02:14:11;;;;;;;9.08;4.70;;;;;;;16.17;87.28;99021.88;1713968;83;21051;-80
2022/05/31 02:16:39;;;;;;;15.03;5.40;;;;;;;16.16;88.20;99021.52;1719930;83;21048;-80
2022/05/31 02:19:28;;;;;;;13.80;5.92;;;;;;;16.15;87.38;99027.20;1709247;83;21043;-79
2022/05/31 02:22:06;;;;;;;9.35;5.10;;;;;;;16.15;87.97;99023.73;1717592;83;21570;-80
2022/05/31 02:24:34;;;;;;;15.55;5.17;;;;;;;16.14;88.41;99028.61;1711609;83;21088;-79
2022/05/31 02:27:02;;;;;;;9.43;4.83;;;;;;;16.15;88.78;99028.98;1710767;83;21078;-80
2022/05/31 02:29:32;;;;;;;15.50;4.70;;;;;;;16.16;88.09;99037.25;1715984;83;21537;-79
2022/05/31 02:32:03;;;;;;;10.05;5.65;;;;;;;16.14;88.01;99035.16;1711616;83;21086;-79
2022/05/31 02:34:35;;;;;;;12.15;5.37;;;;;;;16.14;88.79;99033.85;1720073;83;21114;-79
2022/05/31 02:37:03;;;;;;;11.40;4.83;;;;;;;16.14;88.48;99032.07;1712287;83;21589;-79
2022/05/31 02:39:30;;;;;;;17.52;4.90;;;;;;;16.15;88.85;99039.00;1709152;83;21082;-79
2022/05/31 02:41:59;;;;;;;9.15;4.83;;;;;;;16.16;87.52;99045.12;1715817;83;21074;-83
2022/05/31 02:44:27;;;;;;;7.55;4.58;;;;;;;16.14;88.83;99049.12;1691369;83;21043;-80
2022/05/31 02:46:54;;;;;;;9.28;4.90;;;;;;;16.13;88.72;99054.43;1711915;83;22100;-79
2022/05/31 02:49:21;;;;;;;10.50;5.12;;;;;;;16.12;89.41;99054.06;1714576;83;21131;-78
2022/05/31 02:51:49;;;;;;;15.18;5.78;;;;;;;16.12;88.67;99057.52;1705348;83;21030;-79
2022/05/31 02:54:19;;;;;;;11.43;4.47;;;;;;;16.09;88.89;99058.97;1703499;83;21020;-79
2022/05/31 02:57:04;;;;;;;10.80;5.10;;;;;;;16.12;88.79;99059.30;1703607;83;21034;-80
2022/05/31 02:59:49;;;;;;;16.30;4.90;;;;;;;16.13;88.32;99068.38;1698846;83;21047;-81
2022/05/31 03:02:36;;;;;;;10.35;4.85;;;;;;;16.09;89.15;99063.77;1708864;83;21020;-80
2022/05/31 03:05:17;;;;;;;19.52;6.00;;;;;;;16.05;88.56;99068.75;1662771;85;21059;-80
2022/05/31 03:07:45;;;;;;;13.08;5.15;;;;;;;16.04;88.81;99072.31;1672454;83;21015;-80
2022/05/31 03:10:14;;;;;;;12.00;5.10;;;;;;;16.04;88.07;99067.06;1699103;83;21059;-80
2022/05/31 03:12:41;;;;;;;16.80;5.05;;;;;;;16.04;90.02;99072.78;1708150;83;21011;-79
2022/05/31 03:15:12;;;;;;;11.12;5.35;;;;;;;16.03;88.75;99071.06;1699587;83;21027;-80
2022/05/31 03:17:47;;;;;;;15.58;5.65;;;;;;;16.02;88.83;99081.18;1705317;83;21026;-79
2022/05/31 03:20:19;;;;;;;15.68;5.40;;;;;;;15.97;89.53;99089.24;1711813;84;21067;-80
2022/05/31 03:22:50;;;;;;;11.80;4.83;;;;;;;15.97;89.13;99087.09;1711756;83;21086;-79
2022/05/31 03:25:24;;;;;;;13.30;5.78;;;;;;;15.96;89.30;99089.34;1697903;83;21059;-82
2022/05/31 03:27:56;;;;;;;12.68;5.10;;;;;;;15.97;88.73;99081.38;1703214;83;21050;-81
2022/05/31 03:30:23;;;;;;;15.40;5.03;;;;;;;15.96;88.95;99084.09;1710286;83;21028;-79
2022/05/31 03:32:52;;;;;;;21.30;5.70;;;;;;;15.95;88.83;99078.45;1712318;83;21547;-78
2022/05/31 03:35:19;;;;;;;14.45;4.72;;;;;;;15.96;88.48;99087.56;1704808;83;21574;-79
2022/05/31 03:37:47;;;;;;;12.60;5.62;;;;;;;15.97;88.39;99087.94;1704669;84;21004;-81
2022/05/31 03:43:06;;;;;;;11.48;4.85;;;;;;;16.08;89.53;99096.63;1709766;82;21054;-84
2022/05/31 03:45:39;;;;;;;9.00;5.20;;;;;;;16.07;90.15;99092.28;1686210;83;21078;-83
2022/05/31 03:48:11;;;;;;;15.28;4.65;;;;;;;16.09;89.43;99103.11;1675691;83;21055;-79
2022/05/31 03:50:40;;;;;;;9.03;4.75;;;;;;;16.14;88.96;99107.28;1707406;83;21039;-79
2022/05/31 03:53:11;;;;;;;10.05;5.22;;;;;;;16.18;89.91;99110.15;1717216;83;21041;-78
2022/05/31 03:55:43;;;;;;;17.20;4.95;;;;;;;16.22;88.40;99106.45;1714719;83;21517;-79
2022/05/31 03:58:11;;;;;;;9.75;4.92;;;;;;;16.25;88.93;99102.36;1709154;83;21018;-79
2022/05/31 04:00:40;;;;;;;13.32;5.03;;;;;;;16.28;88.91;99107.47;1696875;83;21130;-79
2022/05/31 04:03:09;;;;;;;12.07;5.17;;;;;;;16.29;89.73;99103.47;1698746;83;21075;-78
2022/05/31 04:05:35;;;;;;;17.62;5.40;;;;;;;16.32;88.95;99102.92;1711579;83;21051;-78
2022/05/31 04:08:08;;;;;;;14.85;5.08;;;;;;;16.36;90.17;99111.88;1701922;83;20967;-78
2022/05/31 04:10:36;;;;;;;14.50;4.85;;;;;;;16.40;89.48;99112.11;1709038;83;21082;-78
2022/05/31 04:13:03;;;;;;;15.15;4.97;;;;;;;16.45;89.58;99108.81;1706821;83;21013;-79
2022/05/31 04:15:50;;;;;;;10.15;4.47;;;;;;;16.52;89.08;99111.14;1716980;83;21052;-79
2022/05/31 04:18:17;;;;;;;9.25;4.83;;;;;;;16.50;89.92;99112.05;1720252;83;21057;-79
2022/05/31 04:20:44;;;;;;;11.78;5.45;;;;;;;16.52;89.29;99117.23;1713758;83;21098;-79
2022/05/31 04:26:06;;;;;;;13.15;5.20;;;;;;;16.61;89.21;99120.72;1650561;83;21566;-78
2022/05/31 04:28:40;;;;;;;17.37;5.00;;;;;;;16.66;89.42;99119.17;1700601;83;21038;-78
2022/05/31 04:31:18;;;;;;;12.35;5.53;;;;;;;16.74;88.56;99120.11;1667609;86;21606;-80
2022/05/31 04:34:04;;;;;;;14.83;5.28;;;;;;;16.72;89.25;99122.80;1626936;87;22117;-79
2022/05/31 04:36:32;;;;;;;9.30;4.97;;;;;;;16.73;89.24;99124.48;1677361;83;21012;-78
2022/05/31 04:39:00;;;;;;;11.25;5.20;;;;;;;16.78;89.16;99124.27;1708073;83;21091;-79
2022/05/31 04:41:30;;;;;;;10.18;5.05;;;;;;;16.84;88.51;99126.15;1716705;83;21028;-79
2022/05/31 04:44:04;;;;;;;12.77;4.80;;;;;;;16.88;88.54;99126.38;1713093;82;21040;-84
2022/05/31 04:46:35;;;;;;;8.88;4.85;;;;;;;16.88;88.39;99130.31;1706448;84;22267;-79
2022/05/31 04:49:05;;;;;;;14.15;4.92;;;;;;;16.89;88.58;99128.53;1690654;84;21034;-78
2022/05/31 04:51:36;;;;;;;10.63;4.92;;;;;;;16.93;88.52;99139.30;1696461;84;21011;-80
2022/05/31 04:54:04;;;;;;;12.05;5.40;;;;;;;16.92;89.24;99134.12;1694863;84;21010;-79
2022/05/31 04:56:39;;;;;;;10.68;5.25;;;;;;;16.98;88.81;99141.69;1701375;84;21004;-79
2022/05/31 04:59:07;;;;;;;11.80;5.55;;;;;;;17.00;88.67;99143.77;1700136;84;21019;-80
2022/05/31 05:01:36;;;;;;;9.55;4.78;;;;;;;17.02;88.39;99143.22;1709187;83;21048;-79
2022/05/31 05:04:05;;;;;;;11.18;5.45;;;;;;;17.09;87.91;99152.50;1708414;84;21023;-79
2022/05/31 05:06:33;;;;;;;11.65;5.03;;;;;;;17.17;87.90;99156.02;1687308;84;21031;-79
2022/05/31 05:09:00;;;;;;;9.40;4.80;;;;;;;17.29;87.25;99154.95;1701657;84;21003;-78
2022/05/31 05:11:27;;;;;;;10.15;4.25;;;;;;;17.38;86.77;99154.92;1707334;84;21075;-79
2022/05/31 05:13:56;;;;;;;9.95;4.50;;;;;;;17.48;86.80;99151.35;1700641;84;21012;-80
2022/05/31 05:16:26;;;;;;;8.90;4.75;;;;;;;17.61;86.59;99157.67;1713324;83;21068;-78
2022/05/31 05:18:55;;;;;;;9.20;4.92;;;;;;;17.72;86.20;99156.25;1710617;84;21067;-78
2022/05/31 05:21:22;;;;;;;13.40;5.45;;;;;;;17.81;85.78;99163.66;1699328;83;21051;-80
2022/05/31 05:23:49;;;;;;;21.52;6.30;;;;;;;17.90;85.46;99159.22;1697451;84;21055;-79
2022/05/31 05:26:18;;;;;;;10.68;5.10;;;;;;;17.97;84.93;99159.28;1705412;84;21080;-79
2022/05/31 05:31:35;;;;;;;14.68;6.28;;;;;;;18.18;84.67;99164.30;1691143;84;21487;-79
2022/05/31 05:34:09;;;;;;;11.97;5.92;;;;;;;18.25;84.31;99161.72;1687430;84;21024;-79
2022/05/31 05:36:41;;;;;;;22.07;13.10;;;;;;;18.27;83.72;99159.84;1696590;84;21086;-79
2022/05/31 05:39:10;;;;;;;12.40;5.78;;;;;;;18.30;83.64;99162.29;1709872;82;21550;-79
2022/05/31 05:41:54;;;;;;;16.87;5.22;;;;;;;18.38;83.02;99157.47;1709433;84;21035;-79
2022/05/31 05:44:39;;;;;;;8.78;5.15;;;;;;;18.43;82.75;99165.94;1721755;83;21135;-79
2022/05/31 05:47:10;;;;;;;13.80;5.42;;;;;;;18.52;82.86;99167.19;1721559;83;20976;-79
2022/05/31 05:49:37;;;;;;;12.80;5.83;;;;;;;18.62;82.30;99163.13;1689541;84;21562;-79
2022/05/31 05:52:07;;;;;;;17.65;5.30;;;;;;;18.72;82.69;99165.22;1688090;84;20984;-80
2022/05/31 05:54:41;;;;;;;14.23;4.70;;;;;;;18.87;82.47;99166.52;1686621;83;21059;-80
2022/05/31 05:57:26;;;;;;;8.93;5.15;;;;;;;19.02;81.67;99167.88;1701597;82;21119;-80
2022/05/31 06:00:13;;;;;;;12.88;4.97;;;;;;;19.15;81.32;99166.70;1706193;83;21063;-79
2022/05/31 06:03:04;;;;;;;12.98;5.78;;;;;;;19.25;81.10;99167.37;1700961;83;21058;-79
2022/05/31 06:05:35;;;;;;;47.83;25.00;;;;;;;19.36;79.97;99172.02;1701227;83;21523;-78
2022/05/31 06:08:08;;;;;;;16.30;7.95;;;;;;;19.50;80.49;99166.36;1704429;84;21064;-79
2022/05/31 06:10:45;;;;;;;11.63;5.05;;;;;;;19.66;80.38;99161.39;1700972;84;21039;-80
2022/05/31 06:13:20;;;;;;;14.43;5.22;;;;;;;19.65;78.12;99161.00;1696696;84;21044;-79
2022/05/31 06:15:51;;;;;;;13.53;5.60;;;;;;;19.63;78.77;99164.20;1699827;83;21012;-80
2022/05/31 06:18:30;;;;;;;9.80;4.78;;;;;;;19.67;77.57;99164.39;1706242;84;21050;-79
2022/05/31 06:21:02;;;;;;;12.40;5.35;;;;;;;19.71;77.82;99161.58;1701061;83;21114;-81
2022/05/31 06:23:29;;;;;;;11.28;5.40;;;;;;;19.82;77.85;99164.44;1710624;84;21793;-80
2022/05/31 06:25:57;;;;;;;8.28;5.17;;;;;;;19.85;76.33;99153.68;1699589;83;20998;-81
2022/05/31 06:28:30;;;;;;;15.18;6.00;;;;;;;19.91;76.29;99159.89;1707962;83;21090;-80
2022/05/31 06:30:57;;;;;;;17.60;5.87;;;;;;;19.98;75.82;99155.94;1702781;84;21075;-82
2022/05/31 06:33:25;;;;;;;14.25;5.67;;;;;;;20.09;75.66;99149.97;1704732;84;20976;-81
2022/05/31 06:35:52;;;;;;;14.85;5.60;;;;;;;20.10;74.94;99149.52;1710721;84;20992;-81
2022/05/31 06:40:47;;;;;;;13.88;6.30;;;;;;;20.31;75.10;99150.76;1856570;74;22940;-80
2022/05/31 06:43:23;;;;;;;14.23;6.40;;;;;;;20.33;73.43;99155.47;1792831;78;21018;-80
2022/05/31 06:46:10;;;;;;;13.78;6.08;;;;;;;20.29;73.84;99147.85;1826227;77;21076;-81
2022/05/31 06:48:57;;;;;;;12.90;7.20;;;;;;;20.29;73.59;99147.37;1826014;76;21142;-81
2022/05/31 06:57:33;;;;;;;;;;;;;;;20.51;73.75;99148.14;1837083;77;21456;-82
2022/05/31 07:00:06;;;;;;;23.55;12.20;;;;;;;20.59;72.64;99139.30;1827918;76;20104;-82
2022/05/31 07:02:35;;;;;;;19.17;10.00;;;;;;;20.69;73.34;99143.52;1804916;76;21512;-81
2022/05/31 07:05:03;;;;;;;16.67;6.72;;;;;;;20.80;73.24;99144.11;1839176;76;20982;-82
2022/05/31 07:07:29;;;;;;;14.03;6.62;;;;;;;20.95;72.92;99148.37;1827880;76;20995;-81
2022/05/31 07:09:56;;;;;;;15.32;7.47;;;;;;;21.02;72.13;99141.71;1830996;76;21324;-81
2022/05/31 07:12:31;;;;;;;14.40;7.20;;;;;;;21.09;71.98;99145.25;1824355;76;21079;-80
2022/05/31 07:15:07;;;;;;;13.30;7.00;;;;;;;21.12;71.14;99143.74;1808372;76;20997;-81
2022/05/31 07:17:35;;;;;;;17.52;6.78;;;;;;;21.13;71.75;99145.41;1825431;76;20992;-80
2022/05/31 07:20:08;;;;;;;13.85;6.47;;;;;;;21.19;70.58;99139.26;1820797;76;21019;-79
2022/05/31 07:22:38;;;;;;;13.80;6.37;;;;;;;21.30;71.45;99137.67;1829604;76;20989;-80
2022/05/31 07:25:19;;;;;;;16.32;6.50;;;;;;;21.41;71.10;99136.47;1757119;76;21054;-80
2022/05/31 07:27:51;;;;;;;19.32;12.30;;;;;;;21.51;70.81;99142.84;1829978;76;20992;-80
2022/05/31 07:30:18;;;;;;;18.30;9.23;;;;;;;21.59;70.83;99133.05;1833671;76;21055;-80
2022/05/31 07:32:45;;;;;;;13.68;7.78;;;;;;;21.69;70.01;99138.55;1830337;76;21103;-80
2022/05/31 07:35:12;;;;;;;15.30;8.65;;;;;;;21.82;70.58;99140.67;1835198;76;21035;-80
2022/05/31 07:37:39;;;;;;;12.85;7.30;;;;;;;21.95;70.06;99132.72;1840425;76;21047;-80
2022/05/31 07:40:07;;;;;;;12.60;7.30;;;;;;;22.01;69.42;99133.12;1830546;76;21055;-80
2022/05/31 07:42:36;;;;;;;14.43;7.67;;;;;;;22.14;69.02;99132.23;1827056;77;20984;-80
2022/05/31 07:45:05;;;;;;;17.98;7.60;;;;;;;22.20;67.98;99136.62;1793891;79;21063;-80
2022/05/31 07:47:32;;;;;;;21.23;8.88;;;;;;;22.23;67.28;99137.70;1802678;79;20962;-79
2022/05/31 07:50:00;;;;;;;16.27;8.60;;;;;;;22.33;67.34;99137.91;1786537;79;21012;-79
2022/05/31 07:52:32;;;;;;;16.15;8.80;;;;;;;22.36;66.79;99132.86;1731005;80;21078;-79
2022/05/31 07:55:19;;;;;;;17.87;8.65;;;;;;;22.49;66.90;99136.80;1683951;85;21120;-79
2022/05/31 08:01:07;;;;;;;15.78;8.65;;;;;;;22.77;65.79;99133.77;1766187;79;21095;-79
2022/05/31 08:03:35;;;;;;;14.13;8.75;;;;;;;22.81;65.34;99134.39;1789241;78;21023;-80
2022/05/31 08:06:06;;;;;;;16.07;8.90;;;;;;;22.86;65.43;99134.04;1802768;79;21065;-80
2022/05/31 08:08:34;;;;;;;13.18;8.53;;;;;;;22.89;63.97;99132.50;1804596;79;21043;-81
2022/05/31 08:11:04;;;;;;;20.40;10.20;;;;;;;22.95;64.87;99133.35;1796251;79;21020;-80
2022/05/31 08:13:32;;;;;;;20.23;9.20;;;;;;;23.05;65.05;99127.75;1784151;78;21159;-80
2022/05/31 08:16:00;;;;;;;17.48;9.18;;;;;;;23.19;64.59;99125.36;1789223;78;21007;-81
2022/05/31 08:18:27;;;;;;;16.23;9.95;;;;;;;23.23;63.79;99122.84;1756461;80;21016;-81
2022/05/31 08:21:09;;;;;;;14.68;8.90;;;;;;;23.15;63.94;99130.05;1766515;81;21060;-83
2022/05/31 08:23:36;;;;;;;16.23;8.98;;;;;;;23.26;64.24;99124.40;1778960;80;21599;-83
2022/05/31 08:26:04;;;;;;;15.75;8.88;;;;;;;23.33;63.44;99119.83;1771150;80;21461;-83
2022/05/31 08:28:32;;;;;;;18.80;11.12;;;;;;;23.33;63.59;99117.67;1786369;80;21052;-84
2022/05/31 08:31:10;;;;;;;19.05;10.60;;;;;;;23.39;63.06;99115.38;1782546;80;20992;-83
2022/05/31 08:33:39;;;;;;;15.80;8.75;;;;;;;23.47;63.50;99116.10;1734488;81;21134;-82
2022/05/31 08:36:08;;;;;;;19.48;11.75;;;;;;;23.51;61.32;99122.02;1779786;81;21006;-79
2022/05/31 08:38:34;;;;;;;15.53;9.10;;;;;;;23.49;61.60;99126.61;1790315;80;20999;-80
2022/05/31 08:41:25;;;;;;;16.17;9.28;;;;;;;23.63;62.32;99130.34;1791532;78;21026;-80
2022/05/31 08:44:34;;;;;;;17.50;8.50;;;;;;;23.78;62.53;99121.20;1801190;78;22299;-81
2022/05/31 08:47:21;;;;;;;15.63;8.55;;;;;;;23.92;61.38;99124.09;1792968;78;21631;-81
2022/05/31 08:53:26;;;;;;;12.53;8.33;;;;;;;24.22;61.27;99129.23;1805254;78;21130;-81
2022/05/31 08:59:18;;;;;;;14.13;9.10;;;;;;;24.56;59.57;99127.82;1791911;80;21082;-80
2022/05/31 09:01:55;;;;;;;15.60;8.63;;;;;;;24.68;59.76;99118.83;1829597;77;20996;-79
2022/05/31 09:04:26;;;;;;;17.75;9.15;;;;;;;24.68;56.81;99124.64;1828893;78;21031;-80
2022/05/31 09:07:06;;;;;;;15.00;8.30;;;;;;;24.65;58.03;99124.41;1833529;77;20994;-81
2022/05/31 09:09:38;;;;;;;18.15;8.38;;;;;;;24.70;57.55;99122.20;1838521;77;21082;-80
2022/05/31 09:12:45;;;;;;;13.93;8.30;;;;;;;24.83;58.11;99131.80;1819083;77;21557;-81
2022/05/31 09:15:26;;;;;;;13.68;7.92;;;;;;;24.97;57.01;99132.84;1822831;78;21000;-80
2022/05/31 09:18:20;;;;;;;13.93;8.35;;;;;;;25.05;57.39;99129.51;1826695;77;21563;-78
2022/05/31 09:20:55;;;;;;;13.98;8.30;;;;;;;25.15;57.59;99133.94;1805328;78;21018;-81
2022/05/31 09:23:26;;;;;;;16.67;7.90;;;;;;;25.27;56.96;99128.55;1809895;78;21015;-79
2022/05/31 09:26:10;;;;;;;12.03;8.00;;;;;;;25.49;56.79;99128.91;1829794;78;21011;-80
2022/05/31 09:28:54;;;;;;;10.58;7.55;;;;;;;25.72;56.13;99120.23;1824442;78;21051;-80
2022/05/31 09:31:44;;;;;;;15.72;8.45;;;;;;;25.92;55.27;99123.33;1828168;78;20987;-81
2022/05/31 09:34:52;;;;;;;14.47;7.47;;;;;;;26.14;56.38;99117.43;1827288;77;20992;-81
2022/05/31 09:37:43;;;;;;;12.68;7.30;;;;;;;26.30;55.50;99121.76;1822984;78;21091;-79
2022/05/31 09:40:33;;;;;;;14.00;7.42;;;;;;;26.37;55.35;99120.20;1821152;78;21115;-80
2022/05/31 09:43:08;;;;;;;13.83;6.85;;;;;;;26.56;54.02;99119.39;1810463;77;21421;-79
2022/05/31 09:45:40;;;;;;;13.13;7.50;;;;;;;26.68;54.89;99117.45;1804909;78;21059;-80
2022/05/31 09:48:07;;;;;;;15.43;7.58;;;;;;;26.95;54.09;99122.55;1801986;77;20992;-80
2022/05/31 09:50:34;;;;;;;57.10;33.78;;;;;;;27.14;53.07;99113.68;1809092;77;21508;-81
2022/05/31 09:57:05;;;;;;;21.12;7.62;;;;;;;27.35;51.90;99110.83;1814271;79;21043;-80
2022/05/31 09:58:38;;;;;;;14.10;7.10;;;;;;;27.41;51.73;99110.24;1811624;77;21496;-80
2022/05/31 10:01:30;;;;;;;15.03;7.12;;;;;;;27.55;52.04;99109.77;1814525;79;21052;-79
2022/05/31 10:04:16;;;;;;;12.58;6.95;;;;;;;27.71;51.57;99102.95;1801984;79;21003;-81
2022/05/31 10:06:59;;;;;;;10.90;7.12;;;;;;;27.91;51.24;99099.25;1813930;79;21028;-80
2022/05/31 10:09:37;;;;;;;17.37;7.08;;;;;;;28.12;51.48;99099.47;1798661;79;21084;-81
2022/05/31 10:12:14;;;;;;;13.48;7.17;;;;;;;28.10;47.61;99101.45;1813254;77;21024;-81
2022/05/31 10:14:49;;;;;;;11.90;7.35;;;;;;;28.15;50.04;99096.00;1802546;77;21611;-81
2022/05/31 10:17:30;;;;;;;12.75;6.90;;;;;;;28.24;49.29;99088.89;1799703;78;20949;-82
2022/05/31 10:20:14;;;;;;;14.55;6.87;;;;;;;28.45;48.92;99079.72;1809443;78;21052;-82
2022/05/31 10:22:57;;;;;;;10.28;6.50;;;;;;;28.57;49.31;99073.20;1818222;78;20968;-82
2022/05/31 10:25:47;;;;;;;11.43;7.25;;;;;;;28.84;48.78;99076.73;1807720;79;20965;-81
2022/05/31 10:29:06;;;;;;;12.33;7.28;;;;;;;29.01;46.77;99070.52;1814830;77;21020;-81
2022/05/31 10:31:52;;;;;;;12.58;6.60;;;;;;;29.28;47.79;99071.36;1745561;80;20991;-82
2022/05/31 10:34:40;;;;;;;10.45;7.10;;;;;;;29.52;47.06;99070.13;1709145;83;21690;-82
2022/05/31 10:37:25;;;;;;;14.10;7.25;;;;;;;29.28;45.17;99072.70;1734164;80;21567;-81
2022/05/31 10:40:11;;;;;;;13.08;6.75;;;;;;;29.10;45.22;99072.22;1783912;79;21132;-81
2022/05/31 10:42:42;;;;;;;11.75;7.67;;;;;;;28.83;44.60;99073.23;1749999;80;21027;-80
2022/05/31 10:45:15;;;;;;;12.90;7.58;;;;;;;28.21;45.29;99072.31;1778765;80;21015;-81
2022/05/31 10:47:41;;;;;;;14.40;7.67;;;;;;;27.88;46.34;99071.48;1782374;79;21070;-80
2022/05/31 10:50:08;;;;;;;13.03;8.58;;;;;;;27.55;46.75;99069.70;1782144;80;21034;-80
2022/05/31 10:52:55;;;;;;;18.90;9.13;;;;;;;27.25;48.12;99066.81;1827959;78;21468;-79
2022/05/31 10:55:42;;;;;;;17.42;9.13;;;;;;;26.94;50.12;99071.53;1813446;78;20953;-80
2022/05/31 10:58:20;;;;;;;18.20;10.68;;;;;;;26.60;50.52;99082.66;1819725;78;21562;-80
2022/05/31 11:01:08;;;;;;;16.85;8.45;;;;;;;26.46;50.81;99082.56;1808993;77;21090;-80
2022/05/31 11:04:10;;;;;;;14.35;9.30;;;;;;;26.29;50.85;99089.41;1764470;78;21571;-80
2022/05/31 11:06:53;;;;;;;21.00;9.83;;;;;;;26.22;53.03;99089.60;1820427;78;21070;-79
2022/05/31 11:12:53;;;;;;;21.05;9.55;;;;;;;26.13;54.12;99084.63;1825908;78;21000;-80
2022/05/31 11:15:54;;;;;;;16.97;9.20;;;;;;;26.04;54.30;99069.95;1846036;77;21021;-80
2022/05/31 11:18:34;;;;;;;19.25;9.43;;;;;;;26.15;53.93;99068.01;1768678;80;21213;-80
2022/05/31 11:21:31;;;;;;;20.25;9.53;;;;;;;26.07;53.95;99065.70;1832480;78;21003;-79
2022/05/31 11:24:22;;;;;;;18.82;10.03;;;;;;;26.06;54.34;99058.67;1772613;79;20991;-80
2022/05/31 11:27:00;;;;;;;15.05;8.45;;;;;;;26.12;53.63;99058.12;1817898;78;21559;-80
2022/05/31 11:29:56;;;;;;;18.90;8.58;;;;;;;26.11;53.24;99053.78;1814519;78;21008;-80
2022/05/31 11:33:06;;;;;;;15.72;9.63;;;;;;;25.97;53.07;99061.19;1827869;78;20967;-80
2022/05/31 11:36:21;;;;;;;46.65;28.10;;;;;;;25.93;53.65;99051.79;1812353;77;21055;-80
2022/05/31 11:39:08;;;;;;;14.53;9.03;;;;;;;25.96;54.02;99050.20;1820840;77;21550;-79
2022/05/31 11:41:48;;;;;;;16.75;8.88;;;;;;;25.92;53.59;99054.09;1831023;77;21531;-80
2022/05/31 11:44:54;;;;;;;16.95;7.72;;;;;;;25.49;54.69;99056.55;1830622;76;21031;-81
2022/05/31 11:47:38;;;;;;;7.05;4.30;;;;;;;25.06;52.98;99057.57;1831302;77;21023;-81
2022/05/31 11:50:41;;;;;;;10.03;4.40;;;;;;;23.68;51.75;99059.67;1813069;77;21027;-79
2022/05/31 11:53:25;;;;;;;10.95;4.87;;;;;;;22.95;52.13;99066.59;1832771;77;21028;-80
2022/05/31 11:56:02;;;;;;;10.53;4.85;;;;;;;22.73;53.18;99051.98;1820485;78;21087;-80
2022/05/31 11:58:43;;;;;;;10.55;5.92;;;;;;;22.70;53.49;99057.04;1821022;78;21101;-79
2022/05/31 12:01:21;;;;;;;13.80;6.67;;;;;;;22.58;54.08;99064.56;1822647;78;21026;-80
2022/05/31 12:04:05;;;;;;;19.50;8.48;;;;;;;22.39;54.25;99064.63;1809113;78;20971;-80
2022/05/31 12:06:49;;;;;;;16.10;7.65;;;;;;;22.13;56.04;99058.58;1827003;78;21445;-79
2022/05/31 12:09:42;;;;;;;13.45;6.65;;;;;;;21.94;56.66;99076.27;1827847;77;20977;-79
2022/05/31 12:12:34;;;;;;;16.77;7.35;;;;;;;21.71;58.60;99070.49;1823289;78;21616;-80
2022/05/31 12:15:09;;;;;;;12.80;5.45;;;;;;;21.66;57.73;99084.02;1817130;78;21034;-79
2022/05/31 12:17:59;;;;;;;16.52;6.55;;;;;;;21.67;58.24;99106.06;1794445;78;21228;-81
2022/05/31 12:20:43;;;;;;;9.15;5.35;;;;;;;21.68;58.20;99109.89;1825216;77;21007;-80
2022/05/31 12:23:24;;;;;;;15.53;5.90;;;;;;;21.73;57.96;99117.53;1831310;78;21512;-79
2022/05/31 12:25:55;;;;;;;13.90;7.60;;;;;;;21.78;59.58;99103.48;1825295;78;21002;-79
2022/05/31 12:28:37;;;;;;;15.63;8.23;;;;;;;21.81;60.75;99089.55;1806669;78;21177;-80
2022/05/31 12:31:16;;;;;;;14.23;6.83;;;;;;;21.75;62.58;99078.58;1770595;78;21019;-79
2022/05/31 12:33:44;;;;;;;16.20;7.03;;;;;;;21.82;63.20;99079.32;1810932;78;21059;-79
2022/05/31 12:36:18;;;;;;;8.55;5.22;;;;;;;22.11;64.66;99092.27;1824976;78;21054;-80
2022/05/31 12:39:11;;;;;;;8.83;4.78;;;;;;;22.41;65.03;99102.44;1833106;78;21587;-80